Terminal Aerodrome Forecast
Issued by NWS

Home | Current Version | Previous Version | Text Only | Print | Product List | Glossary On
Versions: 1 2 3 4 5 6 7 8 9 10 11 12 13 14 15 16 17 18 19 20 21 22 23 24 25
000
FTUS42 KGSP 161400 AAA
TAFAND
TAF AMD
KAND 161409Z 1614/1712 28007KT P6SM SCT040
     FM162100 27008KT P6SM VCTS BKN050CB PROB30 1623/1704 4SM TSRA
      BKN040CB
     FM170400 00000KT P6SM SCT060
     FM170700 35003KT 5SM BR SCT250=

USA.gov is the U.S. government's official web portal to all federal, state and local government web resources and services.